sensor_id;sensor_type;location;lat;lon;timestamp;temperature;humidity
19279;DHT22;9773;47.062;15.446;2024-02-21T00:02:19;5.10;99.90
19279;DHT22;9773;47.062;15.446;2024-02-21T00:04:45;5.10;99.90
19279;DHT22;9773;47.062;15.446;2024-02-21T00:07:11;5.00;99.90
19279;DHT22;9773;47.062;15.446;2024-02-21T00:09:36;5.00;99.90
19279;DHT22;9773;47.062;15.446;2024-02-21T00:12:02;5.00;99.90
19279;DHT22;9773;47.062;15.446;2024-02-21T00:14:28;5.00;99.90
19279;DHT22;9773;47.062;15.446;2024-02-21T00:16:54;5.00;99.90
19279;DHT22;9773;47.062;15.446;2024-02-21T00:19:20;5.00;99.90
19279;DHT22;9773;47.062;15.446;2024-02-21T00:21:46;5.10;99.90
19279;DHT22;9773;47.062;15.446;2024-02-21T00:24:12;5.10;99.90
19279;DHT22;9773;47.062;15.446;2024-02-21T00:26:37;5.10;99.90
19279;DHT22;9773;47.062;15.446;2024-02-21T00:29:03;5.10;99.90
19279;DHT22;9773;47.062;15.446;2024-02-21T00:31:30;5.20;99.90
19279;DHT22;9773;47.062;15.446;2024-02-21T00:33:55;5.20;99.90
19279;DHT22;9773;47.062;15.446;2024-02-21T00:36:21;5.20;99.90
19279;DHT22;9773;47.062;15.446;2024-02-21T00:38:47;5.20;99.90
19279;DHT22;9773;47.062;15.446;2024-02-21T00:41:13;5.10;99.90
19279;DHT22;9773;47.062;15.446;2024-02-21T00:43:38;5.00;99.90
19279;DHT22;9773;47.062;15.446;2024-02-21T00:46:06;5.10;99.90
19279;DHT22;9773;47.062;15.446;2024-02-21T00:48:33;5.20;99.90
19279;DHT22;9773;47.062;15.446;2024-02-21T00:50:59;5.20;99.90
19279;DHT22;9773;47.062;15.446;2024-02-21T00:53:25;5.20;99.90
19279;DHT22;9773;47.062;15.446;2024-02-21T00:55:51;5.30;99.90
19279;DHT22;9773;47.062;15.446;2024-02-21T00:58:16;5.30;99.90
19279;DHT22;9773;47.062;15.446;2024-02-21T01:00:42;5.20;99.90
19279;DHT22;9773;47.062;15.446;2024-02-21T01:03:08;5.30;99.90
19279;DHT22;9773;47.062;15.446;2024-02-21T01:05:34;5.20;99.90
19279;DHT22;9773;47.062;15.446;2024-02-21T01:07:59;5.10;99.90
19279;DHT22;9773;47.062;15.446;2024-02-21T01:10:25;5.10;99.90
19279;DHT22;9773;47.062;15.446;2024-02-21T01:12:51;5.10;99.90
19279;DHT22;9773;47.062;15.446;2024-02-21T01:15:17;5.10;99.90
19279;DHT22;9773;47.062;15.446;2024-02-21T01:17:42;4.90;99.90
19279;DHT22;9773;47.062;15.446;2024-02-21T01:20:09;4.80;99.90
19279;DHT22;9773;47.062;15.446;2024-02-21T01:22:34;4.90;99.90
19279;DHT22;9773;47.062;15.446;2024-02-21T01:25:00;5.00;99.90
19279;DHT22;9773;47.062;15.446;2024-02-21T01:27:26;5.10;99.90
19279;DHT22;9773;47.062;15.446;2024-02-21T01:29:52;5.20;99.90
19279;DHT22;9773;47.062;15.446;2024-02-21T01:32:18;5.30;99.90
19279;DHT22;9773;47.062;15.446;2024-02-21T01:34:44;5.40;99.90
19279;DHT22;9773;47.062;15.446;2024-02-21T01:37:10;5.40;99.90
19279;DHT22;9773;47.062;15.446;2024-02-21T01:39:35;5.30;99.90
19279;DHT22;9773;47.062;15.446;2024-02-21T01:42:01;5.30;99.90
19279;DHT22;9773;47.062;15.446;2024-02-21T01:44:27;5.30;99.90
19279;DHT22;9773;47.062;15.446;2024-02-21T01:46:53;5.40;99.90
19279;DHT22;9773;47.062;15.446;2024-02-21T01:49:20;5.40;99.90
19279;DHT22;9773;47.062;15.446;2024-02-21T01:51:47;5.30;99.90
19279;DHT22;9773;47.062;15.446;2024-02-21T01:54:15;5.30;99.90
19279;DHT22;9773;47.062;15.446;2024-02-21T01:56:44;5.40;99.90
19279;DHT22;9773;47.062;15.446;2024-02-21T01:59:11;5.50;99.90
19279;DHT22;9773;47.062;15.446;2024-02-21T02:01:38;5.50;99.90
19279;DHT22;9773;47.062;15.446;2024-02-21T02:04:04;5.30;99.90
19279;DHT22;9773;47.062;15.446;2024-02-21T02:06:31;5.30;99.90
19279;DHT22;9773;47.062;15.446;2024-02-21T02:08:57;5.30;99.90
19279;DHT22;9773;47.062;15.446;2024-02-21T02:11:23;5.40;99.90
19279;DHT22;9773;47.062;15.446;2024-02-21T02:13:48;5.50;99.90
19279;DHT22;9773;47.062;15.446;2024-02-21T02:16:14;5.40;99.90
19279;DHT22;9773;47.062;15.446;2024-02-21T02:18:40;5.40;99.90
19279;DHT22;9773;47.062;15.446;2024-02-21T02:21:15;5.50;99.90
19279;DHT22;9773;47.062;15.446;2024-02-21T02:23:51;5.60;99.90
19279;DHT22;9773;47.062;15.446;2024-02-21T02:26:16;5.50;99.90
19279;DHT22;9773;47.062;15.446;2024-02-21T02:28:42;5.50;99.90
19279;DHT22;9773;47.062;15.446;2024-02-21T02:31:08;5.40;99.90
19279;DHT22;9773;47.062;15.446;2024-02-21T02:33:34;5.50;99.90
19279;DHT22;9773;47.062;15.446;2024-02-21T02:35:59;5.50;99.90
19279;DHT22;9773;47.062;15.446;2024-02-21T02:38:25;5.60;99.90
19279;DHT22;9773;47.062;15.446;2024-02-21T02:40:51;5.70;99.90
19279;DHT22;9773;47.062;15.446;2024-02-21T02:43:17;5.60;99.90
19279;DHT22;9773;47.062;15.446;2024-02-21T02:45:42;5.50;99.90
19279;DHT22;9773;47.062;15.446;2024-02-21T02:48:08;5.40;99.90
19279;DHT22;9773;47.062;15.446;2024-02-21T02:50:34;5.40;99.90
19279;DHT22;9773;47.062;15.446;2024-02-21T02:53:00;5.50;99.90
19279;DHT22;9773;47.062;15.446;2024-02-21T02:55:26;5.50;99.90
19279;DHT22;9773;47.062;15.446;2024-02-21T02:57:52;5.50;99.90
19279;DHT22;9773;47.062;15.446;2024-02-21T03:00:18;5.40;99.90
19279;DHT22;9773;47.062;15.446;2024-02-21T03:02:45;5.50;99.90
19279;DHT22;9773;47.062;15.446;2024-02-21T03:05:15;5.40;99.90
19279;DHT22;9773;47.062;15.446;2024-02-21T03:07:42;5.50;99.90
19279;DHT22;9773;47.062;15.446;2024-02-21T03:10:08;5.40;99.90
19279;DHT22;9773;47.062;15.446;2024-02-21T03:12:34;5.40;99.90
19279;DHT22;9773;47.062;15.446;2024-02-21T03:15:00;5.50;99.90
19279;DHT22;9773;47.062;15.446;2024-02-21T03:17:26;5.40;99.90
19279;DHT22;9773;47.062;15.446;2024-02-21T03:19:54;5.30;99.90
19279;DHT22;9773;47.062;15.446;2024-02-21T03:22:24;5.20;99.90
19279;DHT22;9773;47.062;15.446;2024-02-21T03:24:50;5.30;99.90
19279;DHT22;9773;47.062;15.446;2024-02-21T03:27:15;5.40;99.90
19279;DHT22;9773;47.062;15.446;2024-02-21T03:29:41;5.50;99.90
19279;DHT22;9773;47.062;15.446;2024-02-21T03:32:07;5.50;99.90
19279;DHT22;9773;47.062;15.446;2024-02-21T03:34:32;5.50;99.90
19279;DHT22;9773;47.062;15.446;2024-02-21T03:36:58;5.50;99.90
19279;DHT22;9773;47.062;15.446;2024-02-21T03:39:24;5.50;99.90
19279;DHT22;9773;47.062;15.446;2024-02-21T03:41:50;5.30;99.90
19279;DHT22;9773;47.062;15.446;2024-02-21T03:44:16;5.30;99.90
19279;DHT22;9773;47.062;15.446;2024-02-21T03:46:42;5.30;99.90
19279;DHT22;9773;47.062;15.446;2024-02-21T03:49:08;5.30;99.90
19279;DHT22;9773;47.062;15.446;2024-02-21T03:51:34;5.30;99.90
19279;DHT22;9773;47.062;15.446;2024-02-21T03:54:00;5.20;99.90
19279;DHT22;9773;47.062;15.446;2024-02-21T03:56:26;5.30;99.90
19279;DHT22;9773;47.062;15.446;2024-02-21T03:58:52;5.30;99.90
19279;DHT22;9773;47.062;15.446;2024-02-21T04:01:17;5.30;99.90
19279;DHT22;9773;47.062;15.446;2024-02-21T04:03:44;5.20;99.90
19279;DHT22;9773;47.062;15.446;2024-02-21T04:06:10;5.20;99.90
19279;DHT22;9773;47.062;15.446;2024-02-21T04:08:36;5.30;99.90
19279;DHT22;9773;47.062;15.446;2024-02-21T04:11:02;5.20;99.90
19279;DHT22;9773;47.062;15.446;2024-02-21T04:13:27;5.20;99.90
19279;DHT22;9773;47.062;15.446;2024-02-21T04:15:53;5.00;99.90
19279;DHT22;9773;47.062;15.446;2024-02-21T04:18:19;5.00;99.90
19279;DHT22;9773;47.062;15.446;2024-02-21T04:20:45;5.00;99.90
19279;DHT22;9773;47.062;15.446;2024-02-21T04:23:11;4.90;99.90
19279;DHT22;9773;47.062;15.446;2024-02-21T04:25:36;5.00;99.90
19279;DHT22;9773;47.062;15.446;2024-02-21T04:28:02;4.90;99.90
19279;DHT22;9773;47.062;15.446;2024-02-21T04:30:29;4.90;99.90
19279;DHT22;9773;47.062;15.446;2024-02-21T04:32:54;4.90;99.90
19279;DHT22;9773;47.062;15.446;2024-02-21T04:35:20;3.90;99.90
19279;DHT22;9773;47.062;15.446;2024-02-21T04:37:46;4.80;99.90
19279;DHT22;9773;47.062;15.446;2024-02-21T04:40:12;4.80;99.90
19279;DHT22;9773;47.062;15.446;2024-02-21T04:42:40;4.90;99.90
19279;DHT22;9773;47.062;15.446;2024-02-21T04:45:06;4.90;99.90
19279;DHT22;9773;47.062;15.446;2024-02-21T04:47:32;5.00;99.90
19279;DHT22;9773;47.062;15.446;2024-02-21T04:49:58;5.00;99.90
19279;DHT22;9773;47.062;15.446;2024-02-21T04:52:24;5.00;99.90
19279;DHT22;9773;47.062;15.446;2024-02-21T04:54:49;5.10;99.90
19279;DHT22;9773;47.062;15.446;2024-02-21T04:57:16;5.10;99.90
19279;DHT22;9773;47.062;15.446;2024-02-21T04:59:48;5.10;99.90
19279;DHT22;9773;47.062;15.446;2024-02-21T05:02:14;5.10;99.90
19279;DHT22;9773;47.062;15.446;2024-02-21T05:04:40;5.20;99.90
19279;DHT22;9773;47.062;15.446;2024-02-21T05:07:19;5.20;99.90
19279;DHT22;9773;47.062;15.446;2024-02-21T05:09:45;5.20;99.90
19279;DHT22;9773;47.062;15.446;2024-02-21T05:12:11;5.10;99.90
19279;DHT22;9773;47.062;15.446;2024-02-21T05:14:37;5.00;99.90
19279;DHT22;9773;47.062;15.446;2024-02-21T05:17:04;5.00;99.90
19279;DHT22;9773;47.062;15.446;2024-02-21T05:19:30;5.10;99.90
19279;DHT22;9773;47.062;15.446;2024-02-21T05:21:55;5.00;99.90
19279;DHT22;9773;47.062;15.446;2024-02-21T05:24:21;5.00;99.90
19279;DHT22;9773;47.062;15.446;2024-02-21T05:26:47;5.00;99.90
19279;DHT22;9773;47.062;15.446;2024-02-21T05:29:13;5.00;99.90
19279;DHT22;9773;47.062;15.446;2024-02-21T05:34:17;5.10;99.90
19279;DHT22;9773;47.062;15.446;2024-02-21T05:36:43;5.00;99.90
19279;DHT22;9773;47.062;15.446;2024-02-21T05:39:09;5.00;99.90
19279;DHT22;9773;47.062;15.446;2024-02-21T05:41:35;5.00;99.90
19279;DHT22;9773;47.062;15.446;2024-02-21T05:44:01;4.90;99.90
19279;DHT22;9773;47.062;15.446;2024-02-21T05:46:27;4.80;99.90
19279;DHT22;9773;47.062;15.446;2024-02-21T05:48:52;4.90;99.90
19279;DHT22;9773;47.062;15.446;2024-02-21T05:51:18;5.00;99.90
19279;DHT22;9773;47.062;15.446;2024-02-21T05:53:44;5.00;99.90
19279;DHT22;9773;47.062;15.446;2024-02-21T05:56:14;4.90;99.90
19279;DHT22;9773;47.062;15.446;2024-02-21T05:58:40;4.80;99.90
19279;DHT22;9773;47.062;15.446;2024-02-21T06:01:07;4.80;99.90
19279;DHT22;9773;47.062;15.446;2024-02-21T06:03:33;4.80;99.90
19279;DHT22;9773;47.062;15.446;2024-02-21T06:06:00;4.80;99.90
19279;DHT22;9773;47.062;15.446;2024-02-21T06:08:26;3.30;99.90
19279;DHT22;9773;47.062;15.446;2024-02-21T06:10:52;4.70;99.90
19279;DHT22;9773;47.062;15.446;2024-02-21T06:13:20;4.70;99.90
19279;DHT22;9773;47.062;15.446;2024-02-21T06:15:47;4.70;99.90
19279;DHT22;9773;47.062;15.446;2024-02-21T06:18:13;4.70;99.90
19279;DHT22;9773;47.062;15.446;2024-02-21T06:20:38;4.60;99.90
19279;DHT22;9773;47.062;15.446;2024-02-21T06:23:06;4.70;99.90
19279;DHT22;9773;47.062;15.446;2024-02-21T06:25:32;4.70;99.90
19279;DHT22;9773;47.062;15.446;2024-02-21T06:27:58;4.70;99.90
19279;DHT22;9773;47.062;15.446;2024-02-21T06:30:23;4.90;99.90
19279;DHT22;9773;47.062;15.446;2024-02-21T06:32:49;4.90;99.90
19279;DHT22;9773;47.062;15.446;2024-02-21T06:35:15;5.00;99.90
19279;DHT22;9773;47.062;15.446;2024-02-21T06:37:41;5.10;99.90
19279;DHT22;9773;47.062;15.446;2024-02-21T06:40:07;5.10;99.90
19279;DHT22;9773;47.062;15.446;2024-02-21T06:42:33;5.20;99.90
19279;DHT22;9773;47.062;15.446;2024-02-21T06:44:58;5.40;99.90
19279;DHT22;9773;47.062;15.446;2024-02-21T06:47:24;5.50;99.90
19279;DHT22;9773;47.062;15.446;2024-02-21T06:49:50;5.60;99.90
19279;DHT22;9773;47.062;15.446;2024-02-21T06:52:19;5.80;99.90
19279;DHT22;9773;47.062;15.446;2024-02-21T06:54:46;5.90;99.90
19279;DHT22;9773;47.062;15.446;2024-02-21T06:57:15;5.90;99.90
19279;DHT22;9773;47.062;15.446;2024-02-21T06:59:41;5.70;99.90
19279;DHT22;9773;47.062;15.446;2024-02-21T07:02:07;5.60;99.90
19279;DHT22;9773;47.062;15.446;2024-02-21T07:04:34;5.60;99.90
19279;DHT22;9773;47.062;15.446;2024-02-21T07:06:59;5.70;99.90
19279;DHT22;9773;47.062;15.446;2024-02-21T07:09:25;5.70;99.90
19279;DHT22;9773;47.062;15.446;2024-02-21T07:11:51;5.70;99.90
19279;DHT22;9773;47.062;15.446;2024-02-21T07:15:58;8.30;99.90
19279;DHT22;9773;47.062;15.446;2024-02-21T07:18:23;5.60;99.90
19279;DHT22;9773;47.062;15.446;2024-02-21T07:20:51;5.50;99.90
19279;DHT22;9773;47.062;15.446;2024-02-21T07:23:18;5.60;99.90
19279;DHT22;9773;47.062;15.446;2024-02-21T07:25:43;5.60;99.90
19279;DHT22;9773;47.062;15.446;2024-02-21T07:28:09;5.70;99.90
19279;DHT22;9773;47.062;15.446;2024-02-21T07:30:35;5.70;99.90
19279;DHT22;9773;47.062;15.446;2024-02-21T07:33:01;5.80;99.90
19279;DHT22;9773;47.062;15.446;2024-02-21T07:35:27;5.90;99.90
19279;DHT22;9773;47.062;15.446;2024-02-21T07:37:53;6.00;99.90
19279;DHT22;9773;47.062;15.446;2024-02-21T07:40:19;6.10;99.90
19279;DHT22;9773;47.062;15.446;2024-02-21T07:42:45;6.30;99.90
19279;DHT22;9773;47.062;15.446;2024-02-21T07:45:11;6.40;99.90
19279;DHT22;9773;47.062;15.446;2024-02-21T07:47:37;6.50;99.90
19279;DHT22;9773;47.062;15.446;2024-02-21T07:50:03;6.60;99.90
19279;DHT22;9773;47.062;15.446;2024-02-21T07:52:29;6.60;99.90
19279;DHT22;9773;47.062;15.446;2024-02-21T07:54:55;6.50;99.90
19279;DHT22;9773;47.062;15.446;2024-02-21T07:57:21;6.60;99.90
19279;DHT22;9773;47.062;15.446;2024-02-21T07:59:47;6.50;99.90
19279;DHT22;9773;47.062;15.446;2024-02-21T08:02:14;6.50;99.90
19279;DHT22;9773;47.062;15.446;2024-02-21T08:04:40;6.70;99.90
19279;DHT22;9773;47.062;15.446;2024-02-21T08:07:06;6.80;99.90
19279;DHT22;9773;47.062;15.446;2024-02-21T08:09:32;6.90;99.90
19279;DHT22;9773;47.062;15.446;2024-02-21T08:11:58;7.10;99.90
19279;DHT22;9773;47.062;15.446;2024-02-21T08:14:23;7.20;99.90
19279;DHT22;9773;47.062;15.446;2024-02-21T08:16:51;7.20;99.90
19279;DHT22;9773;47.062;15.446;2024-02-21T08:19:19;7.30;99.90
19279;DHT22;9773;47.062;15.446;2024-02-21T08:21:44;7.40;99.80
19279;DHT22;9773;47.062;15.446;2024-02-21T08:24:13;7.50;99.90
19279;DHT22;9773;47.062;15.446;2024-02-21T08:26:42;7.40;99.80
19279;DHT22;9773;47.062;15.446;2024-02-21T08:29:08;7.40;99.50
19279;DHT22;9773;47.062;15.446;2024-02-21T08:31:34;7.40;99.50
19279;DHT22;9773;47.062;15.446;2024-02-21T08:34:02;7.30;99.40
19279;DHT22;9773;47.062;15.446;2024-02-21T08:36:34;7.20;99.10
19279;DHT22;9773;47.062;15.446;2024-02-21T08:39:00;7.20;99.00
19279;DHT22;9773;47.062;15.446;2024-02-21T08:41:26;7.10;99.20
19279;DHT22;9773;47.062;15.446;2024-02-21T08:43:53;7.00;99.00
19279;DHT22;9773;47.062;15.446;2024-02-21T08:46:23;7.10;99.20
19279;DHT22;9773;47.062;15.446;2024-02-21T08:48:50;7.10;99.10
19279;DHT22;9773;47.062;15.446;2024-02-21T08:51:19;7.10;99.20
19279;DHT22;9773;47.062;15.446;2024-02-21T08:53:46;7.10;99.30
19279;DHT22;9773;47.062;15.446;2024-02-21T08:56:12;7.10;99.40
19279;DHT22;9773;47.062;15.446;2024-02-21T08:58:39;7.20;99.60
19279;DHT22;9773;47.062;15.446;2024-02-21T09:01:06;7.30;99.60
19279;DHT22;9773;47.062;15.446;2024-02-21T09:03:39;7.40;99.50
19279;DHT22;9773;47.062;15.446;2024-02-21T09:06:05;7.60;99.60
19279;DHT22;9773;47.062;15.446;2024-02-21T09:08:32;7.80;99.00
19279;DHT22;9773;47.062;15.446;2024-02-21T09:10:58;7.90;99.10
19279;DHT22;9773;47.062;15.446;2024-02-21T09:13:24;8.00;98.70
19279;DHT22;9773;47.062;15.446;2024-02-21T09:15:50;8.20;98.30
19279;DHT22;9773;47.062;15.446;2024-02-21T09:18:16;8.20;98.50
19279;DHT22;9773;47.062;15.446;2024-02-21T09:20:42;8.40;98.30
19279;DHT22;9773;47.062;15.446;2024-02-21T09:23:09;8.50;98.00
19279;DHT22;9773;47.062;15.446;2024-02-21T09:25:34;8.60;98.00
19279;DHT22;9773;47.062;15.446;2024-02-21T09:28:02;8.70;97.90
19279;DHT22;9773;47.062;15.446;2024-02-21T09:30:28;8.90;97.80
19279;DHT22;9773;47.062;15.446;2024-02-21T09:32:54;9.10;97.70
19279;DHT22;9773;47.062;15.446;2024-02-21T09:35:20;9.20;96.00
19279;DHT22;9773;47.062;15.446;2024-02-21T09:37:48;9.30;95.90
19279;DHT22;9773;47.062;15.446;2024-02-21T09:40:15;9.40;95.50
19279;DHT22;9773;47.062;15.446;2024-02-21T09:42:44;9.50;95.10
19279;DHT22;9773;47.062;15.446;2024-02-21T09:45:21;9.50;95.10
19279;DHT22;9773;47.062;15.446;2024-02-21T09:50:40;9.60;95.30
19279;DHT22;9773;47.062;15.446;2024-02-21T09:53:11;9.70;95.00
19279;DHT22;9773;47.062;15.446;2024-02-21T09:55:38;9.80;94.80
19279;DHT22;9773;47.062;15.446;2024-02-21T09:58:06;9.80;94.60
19279;DHT22;9773;47.062;15.446;2024-02-21T10:00:32;9.80;94.80
19279;DHT22;9773;47.062;15.446;2024-02-21T10:02:59;9.80;94.70
19279;DHT22;9773;47.062;15.446;2024-02-21T10:05:25;9.90;94.50
19279;DHT22;9773;47.062;15.446;2024-02-21T10:07:51;9.90;94.60
19279;DHT22;9773;47.062;15.446;2024-02-21T10:10:17;9.90;94.30
19279;DHT22;9773;47.062;15.446;2024-02-21T10:12:52;9.90;94.30
19279;DHT22;9773;47.062;15.446;2024-02-21T10:15:22;9.80;94.40
19279;DHT22;9773;47.062;15.446;2024-02-21T10:18:00;9.80;93.90
19279;DHT22;9773;47.062;15.446;2024-02-21T10:20:26;9.70;94.30
19279;DHT22;9773;47.062;15.446;2024-02-21T10:23:05;9.60;94.30
19279;DHT22;9773;47.062;15.446;2024-02-21T10:25:35;9.70;94.10
19279;DHT22;9773;47.062;15.446;2024-02-21T10:28:04;9.70;94.20
19279;DHT22;9773;47.062;15.446;2024-02-21T10:30:30;9.70;94.00
19279;DHT22;9773;47.062;15.446;2024-02-21T10:32:56;9.70;93.90
19279;DHT22;9773;47.062;15.446;2024-02-21T10:35:31;9.70;93.70
19279;DHT22;9773;47.062;15.446;2024-02-21T10:37:58;9.60;93.70
19279;DHT22;9773;47.062;15.446;2024-02-21T10:40:25;9.60;94.10
19279;DHT22;9773;47.062;15.446;2024-02-21T10:42:57;9.50;93.80
19279;DHT22;9773;47.062;15.446;2024-02-21T10:47:56;9.60;93.60
19279;DHT22;9773;47.062;15.446;2024-02-21T10:50:31;9.50;93.60
19279;DHT22;9773;47.062;15.446;2024-02-21T10:55:41;9.50;93.70
19279;DHT22;9773;47.062;15.446;2024-02-21T10:58:11;9.50;93.70
19279;DHT22;9773;47.062;15.446;2024-02-21T11:00:37;9.50;93.50
19279;DHT22;9773;47.062;15.446;2024-02-21T11:03:03;9.60;93.70
19279;DHT22;9773;47.062;15.446;2024-02-21T11:05:31;9.60;93.70
19279;DHT22;9773;47.062;15.446;2024-02-21T11:07:58;9.70;93.70
19279;DHT22;9773;47.062;15.446;2024-02-21T11:10:24;9.80;93.20
19279;DHT22;9773;47.062;15.446;2024-02-21T11:13:04;9.90;93.40
19279;DHT22;9773;47.062;15.446;2024-02-21T11:15:30;10.00;92.30
19279;DHT22;9773;47.062;15.446;2024-02-21T11:17:56;10.10;92.40
19279;DHT22;9773;47.062;15.446;2024-02-21T11:20:35;10.10;92.20
19279;DHT22;9773;47.062;15.446;2024-02-21T11:23:01;10.00;92.10
19279;DHT22;9773;47.062;15.446;2024-02-21T11:25:28;10.00;92.50
19279;DHT22;9773;47.062;15.446;2024-02-21T11:28:00;10.00;92.50
19279;DHT22;9773;47.062;15.446;2024-02-21T11:30:29;10.00;92.60
19279;DHT22;9773;47.062;15.446;2024-02-21T11:33:06;10.00;92.70
19279;DHT22;9773;47.062;15.446;2024-02-21T11:35:33;10.10;92.40
19279;DHT22;9773;47.062;15.446;2024-02-21T11:38:12;10.10;92.10
19279;DHT22;9773;47.062;15.446;2024-02-21T11:40:45;10.30;92.10
19279;DHT22;9773;47.062;15.446;2024-02-21T11:43:11;10.60;91.80
19279;DHT22;9773;47.062;15.446;2024-02-21T11:45:37;10.80;91.60
19279;DHT22;9773;47.062;15.446;2024-02-21T11:48:06;11.00;91.40
19279;DHT22;9773;47.062;15.446;2024-02-21T11:50:32;11.10;91.20
19279;DHT22;9773;47.062;15.446;2024-02-21T11:52:58;11.30;90.60
19279;DHT22;9773;47.062;15.446;2024-02-21T11:55:24;11.40;91.00
19279;DHT22;9773;47.062;15.446;2024-02-21T11:57:50;11.50;90.80
19279;DHT22;9773;47.062;15.446;2024-02-21T12:00:17;11.60;90.30
19279;DHT22;9773;47.062;15.446;2024-02-21T12:02:44;11.80;90.40
19279;DHT22;9773;47.062;15.446;2024-02-21T12:05:11;11.90;89.30
19279;DHT22;9773;47.062;15.446;2024-02-21T12:07:37;12.00;89.20
19279;DHT22;9773;47.062;15.446;2024-02-21T12:10:08;12.10;88.90
19279;DHT22;9773;47.062;15.446;2024-02-21T12:12:36;12.10;88.40
19279;DHT22;9773;47.062;15.446;2024-02-21T12:15:04;12.20;88.80
19279;DHT22;9773;47.062;15.446;2024-02-21T12:17:33;12.30;87.40
19279;DHT22;9773;47.062;15.446;2024-02-21T12:20:01;12.30;87.40
19279;DHT22;9773;47.062;15.446;2024-02-21T12:22:30;12.40;87.50
19279;DHT22;9773;47.062;15.446;2024-02-21T12:24:58;12.50;86.30
19279;DHT22;9773;47.062;15.446;2024-02-21T12:27:24;12.60;85.70
19279;DHT22;9773;47.062;15.446;2024-02-21T12:29:52;12.60;86.10
19279;DHT22;9773;47.062;15.446;2024-02-21T12:32:17;12.70;86.80
19279;DHT22;9773;47.062;15.446;2024-02-21T12:34:43;12.80;85.70
19279;DHT22;9773;47.062;15.446;2024-02-21T12:37:10;12.70;85.70
19279;DHT22;9773;47.062;15.446;2024-02-21T12:39:37;12.80;85.80
19279;DHT22;9773;47.062;15.446;2024-02-21T12:42:04;12.70;86.40
19279;DHT22;9773;47.062;15.446;2024-02-21T12:44:30;12.70;87.10
19279;DHT22;9773;47.062;15.446;2024-02-21T12:46:55;12.70;86.60
19279;DHT22;9773;47.062;15.446;2024-02-21T12:49:21;12.70;86.60
19279;DHT22;9773;47.062;15.446;2024-02-21T12:51:47;12.60;86.50
19279;DHT22;9773;47.062;15.446;2024-02-21T12:54:13;12.40;86.20
19279;DHT22;9773;47.062;15.446;2024-02-21T12:56:38;12.30;86.00
19279;DHT22;9773;47.062;15.446;2024-02-21T12:59:05;12.10;85.80
19279;DHT22;9773;47.062;15.446;2024-02-21T13:01:35;12.00;85.70
19279;DHT22;9773;47.062;15.446;2024-02-21T13:04:01;11.90;85.70
19279;DHT22;9773;47.062;15.446;2024-02-21T13:06:27;11.90;85.50
19279;DHT22;9773;47.062;15.446;2024-02-21T13:08:53;12.00;86.00
19279;DHT22;9773;47.062;15.446;2024-02-21T13:11:19;12.00;86.00
19279;DHT22;9773;47.062;15.446;2024-02-21T13:13:45;12.10;85.70
19279;DHT22;9773;47.062;15.446;2024-02-21T13:16:11;12.30;85.00
19279;DHT22;9773;47.062;15.446;2024-02-21T13:18:37;12.50;85.40
19279;DHT22;9773;47.062;15.446;2024-02-21T13:21:08;12.70;84.70
19279;DHT22;9773;47.062;15.446;2024-02-21T13:23:34;12.80;83.20
19279;DHT22;9773;47.062;15.446;2024-02-21T13:25:59;12.90;82.50
19279;DHT22;9773;47.062;15.446;2024-02-21T13:28:25;13.10;82.10
19279;DHT22;9773;47.062;15.446;2024-02-21T13:30:51;13.00;82.50
19279;DHT22;9773;47.062;15.446;2024-02-21T13:33:17;13.00;83.10
19279;DHT22;9773;47.062;15.446;2024-02-21T13:35:43;13.10;82.90
19279;DHT22;9773;47.062;15.446;2024-02-21T13:38:08;13.20;83.60
19279;DHT22;9773;47.062;15.446;2024-02-21T13:40:35;13.20;83.20
19279;DHT22;9773;47.062;15.446;2024-02-21T13:43:01;13.30;81.90
19279;DHT22;9773;47.062;15.446;2024-02-21T13:45:27;13.40;81.20
19279;DHT22;9773;47.062;15.446;2024-02-21T13:47:53;13.40;81.70
19279;DHT22;9773;47.062;15.446;2024-02-21T13:50:21;13.40;81.80
19279;DHT22;9773;47.062;15.446;2024-02-21T13:52:47;13.40;81.60
19279;DHT22;9773;47.062;15.446;2024-02-21T13:55:12;13.50;80.10
19279;DHT22;9773;47.062;15.446;2024-02-21T13:57:38;13.50;80.40
19279;DHT22;9773;47.062;15.446;2024-02-21T14:00:05;13.50;79.80
19279;DHT22;9773;47.062;15.446;2024-02-21T14:02:31;13.50;79.50
19279;DHT22;9773;47.062;15.446;2024-02-21T14:04:57;13.30;79.80
19279;DHT22;9773;47.062;15.446;2024-02-21T14:07:22;13.40;80.30
19279;DHT22;9773;47.062;15.446;2024-02-21T14:09:49;13.40;80.00
19279;DHT22;9773;47.062;15.446;2024-02-21T14:12:15;13.30;80.20
19279;DHT22;9773;47.062;15.446;2024-02-21T14:14:43;13.30;80.70
19279;DHT22;9773;47.062;15.446;2024-02-21T14:17:09;13.20;81.20
19279;DHT22;9773;47.062;15.446;2024-02-21T14:19:35;13.10;81.10
19279;DHT22;9773;47.062;15.446;2024-02-21T14:22:01;13.10;80.50
19279;DHT22;9773;47.062;15.446;2024-02-21T14:24:28;13.10;81.30
19279;DHT22;9773;47.062;15.446;2024-02-21T14:26:54;13.10;80.00
19279;DHT22;9773;47.062;15.446;2024-02-21T14:29:20;13.10;80.50
19279;DHT22;9773;47.062;15.446;2024-02-21T14:31:47;13.00;80.80
19279;DHT22;9773;47.062;15.446;2024-02-21T14:34:13;13.00;80.80
19279;DHT22;9773;47.062;15.446;2024-02-21T14:36:38;13.00;80.50
19279;DHT22;9773;47.062;15.446;2024-02-21T14:39:06;13.10;80.60
19279;DHT22;9773;47.062;15.446;2024-02-21T14:41:32;13.10;80.00
19279;DHT22;9773;47.062;15.446;2024-02-21T14:43:57;13.00;79.90
19279;DHT22;9773;47.062;15.446;2024-02-21T14:46:25;13.00;80.30
19279;DHT22;9773;47.062;15.446;2024-02-21T14:48:54;13.00;80.80
19279;DHT22;9773;47.062;15.446;2024-02-21T14:51:20;13.00;80.70
19279;DHT22;9773;47.062;15.446;2024-02-21T14:53:46;12.90;80.40
19279;DHT22;9773;47.062;15.446;2024-02-21T14:56:13;12.90;80.60
19279;DHT22;9773;47.062;15.446;2024-02-21T14:58:41;12.90;81.00
19279;DHT22;9773;47.062;15.446;2024-02-21T15:01:07;12.90;80.50
19279;DHT22;9773;47.062;15.446;2024-02-21T15:03:34;12.90;81.00
19279;DHT22;9773;47.062;15.446;2024-02-21T15:05:59;12.90;80.90
19279;DHT22;9773;47.062;15.446;2024-02-21T15:08:26;12.90;80.20
19279;DHT22;9773;47.062;15.446;2024-02-21T15:10:53;12.90;80.80
19279;DHT22;9773;47.062;15.446;2024-02-21T15:13:20;12.80;80.60
19279;DHT22;9773;47.062;15.446;2024-02-21T15:15:46;12.90;80.20
19279;DHT22;9773;47.062;15.446;2024-02-21T15:18:14;12.90;79.80
19279;DHT22;9773;47.062;15.446;2024-02-21T15:20:44;12.90;80.00
19279;DHT22;9773;47.062;15.446;2024-02-21T15:23:10;12.90;80.40
19279;DHT22;9773;47.062;15.446;2024-02-21T15:25:36;12.80;80.50
19279;DHT22;9773;47.062;15.446;2024-02-21T15:28:03;12.80;79.80
19279;DHT22;9773;47.062;15.446;2024-02-21T15:30:32;12.70;78.80
19279;DHT22;9773;47.062;15.446;2024-02-21T15:32:58;12.70;78.70
19279;DHT22;9773;47.062;15.446;2024-02-21T15:35:30;12.60;79.10
19279;DHT22;9773;47.062;15.446;2024-02-21T15:37:57;12.50;79.30
19279;DHT22;9773;47.062;15.446;2024-02-21T15:40:23;12.40;78.60
19279;DHT22;9773;47.062;15.446;2024-02-21T15:42:49;12.30;78.40
19279;DHT22;9773;47.062;15.446;2024-02-21T15:45:15;12.20;79.80
19279;DHT22;9773;47.062;15.446;2024-02-21T15:47:41;12.20;83.30
19279;DHT22;9773;47.062;15.446;2024-02-21T15:50:07;12.20;87.10
19279;DHT22;9773;47.062;15.446;2024-02-21T15:52:35;12.10;83.70